Time;durP1;ratioP1;P1;durP2;ratioP2;P2;SDS_P1;SDS_P2;PMS_P1;PMS_P2;Temp;Humidity;BMP_temperature;BMP_pressure;BME280_temperature;BME280_humidity;BME280_pressure;Samples;Min_cycle;Max_cycle;Signal;HPM_P1;HPM_P2
2023/07/09 00:02:05;;;;;;;;;;;16.20;55.30;;;;;;4143235;28;19921;-85
2023/07/09 00:04:28;;;;;;;;;;;16.10;54.80;;;;;;4126617;28;20295;-84
2023/07/09 00:06:48;;;;;;;;;;;16.10;55.10;;;;;;4141213;28;19914;-86
2023/07/09 00:09:17;;;;;;;;;;;16.10;55.50;;;;;;4125571;28;19991;-84
2023/07/09 00:11:18;;;;;;;;;;;16.10;55.60;;;;;;4109421;28;19922;-84
2023/07/09 00:13:39;;;;;;;;;;;16.00;55.40;;;;;;4141807;28;19978;-83
2023/07/09 00:16:01;;;;;;;;;;;16.00;56.10;;;;;;4142381;28;19991;-84
2023/07/09 00:18:22;;;;;;;;;;;15.90;56.50;;;;;;4141999;28;19917;-84
2023/07/09 00:20:43;;;;;;;;;;;15.90;56.30;;;;;;4126701;28;19925;-85
2023/07/09 00:23:04;;;;;;;;;;;15.90;57.30;;;;;;4139675;28;19933;-85
2023/07/09 00:25:24;;;;;;;;;;;15.90;59.90;;;;;;4142579;28;19952;-88
2023/07/09 00:27:48;;;;;;;;;;;15.90;57.90;;;;;;4137274;28;19993;-87
2023/07/09 00:30:15;;;;;;;;;;;15.90;57.60;;;;;;4129096;28;19937;-86
2023/07/09 00:32:43;;;;;;;;;;;15.90;58.10;;;;;;4143858;28;19913;-85
2023/07/09 00:35:04;;;;;;;;;;;15.90;58.10;;;;;;4142303;28;19917;-85
2023/07/09 00:37:25;;;;;;;;;;;15.80;57.90;;;;;;4143379;28;20141;-85
2023/07/09 00:39:46;;;;;;;;;;;15.80;57.90;;;;;;4137506;28;19939;-85
2023/07/09 00:41:47;;;;;;;;;;;15.90;58.00;;;;;;4138581;28;19921;-86
2023/07/09 00:43:49;;;;;;;;;;;15.90;58.20;;;;;;4144928;28;19921;-85
2023/07/09 00:46:09;;;;;;;;;;;15.80;58.20;;;;;;4141358;28;19913;-86
2023/07/09 00:48:13;;;;;;;;;;;15.80;58.20;;;;;;4140016;28;19921;-84
2023/07/09 00:50:16;;;;;;;;;;;15.80;58.10;;;;;;4137805;28;19914;-87
2023/07/09 00:52:22;;;;;;;;;;;15.80;58.30;;;;;;4134873;28;19918;-85
2023/07/09 00:54:22;;;;;;;;;;;15.80;58.30;;;;;;4126933;28;19914;-85
2023/07/09 00:56:44;;;;;;;;;;;15.80;58.30;;;;;;4139520;28;20012;-85
2023/07/09 00:58:47;;;;;;;;;;;15.80;58.10;;;;;;4124446;28;20641;-90
2023/07/09 01:00:52;;;;;;;;;;;15.80;57.80;;;;;;4140352;28;19921;-84
2023/07/09 01:02:58;;;;;;;;;;;15.80;58.20;;;;;;4124193;28;19918;-84
2023/07/09 01:05:00;;;;;;;;;;;15.80;58.40;;;;;;4139111;28;19913;-85
2023/07/09 01:07:00;;;;;;;;;;;15.80;58.50;;;;;;4138189;28;19991;-84
2023/07/09 01:09:02;;;;;;;;;;;15.70;58.60;;;;;;4138145;28;19921;-89
2023/07/09 01:11:02;;;;;;;;;;;15.70;58.80;;;;;;4141941;28;19920;-85
2023/07/09 01:13:03;;;;;;;;;;;15.70;58.70;;;;;;4142854;28;19913;-85
2023/07/09 01:15:04;;;;;;;;;;;15.70;58.90;;;;;;4144518;28;20306;-85
2023/07/09 01:17:09;;;;;;;;;;;15.60;58.50;;;;;;4122970;28;19922;-85
2023/07/09 01:19:10;;;;;;;;;;;15.70;58.30;;;;;;4125888;28;19922;-87
2023/07/09 01:21:15;;;;;;;;;;;15.60;58.70;;;;;;4124496;28;19926;-85
2023/07/09 01:23:16;;;;;;;;;;;15.60;58.70;;;;;;4123131;28;19955;-83
2023/07/09 01:25:17;;;;;;;;;;;15.60;58.80;;;;;;4124287;28;19914;-85
2023/07/09 01:27:19;;;;;;;;;;;15.60;58.90;;;;;;4140686;28;20290;-85
2023/07/09 01:29:20;;;;;;;;;;;15.60;59.00;;;;;;4142040;28;19966;-85
2023/07/09 01:31:22;;;;;;;;;;;15.60;59.00;;;;;;4123858;28;19922;-88
2023/07/09 01:33:22;;;;;;;;;;;15.70;59.00;;;;;;4143335;28;19920;-89
2023/07/09 01:35:24;;;;;;;;;;;15.60;59.10;;;;;;4144946;28;20008;-84
2023/07/09 01:37:26;;;;;;;;;;;15.60;58.80;;;;;;4123563;28;19921;-87
2023/07/09 01:39:28;;;;;;;;;;;15.60;59.10;;;;;;4143559;28;19913;-88
2023/07/09 01:41:30;;;;;;;;;;;15.60;58.80;;;;;;4144143;28;19928;-86
2023/07/09 01:43:32;;;;;;;;;;;15.70;59.10;;;;;;4122413;28;20005;-85
2023/07/09 01:45:34;;;;;;;;;;;15.60;59.10;;;;;;4122826;28;19917;-88
2023/07/09 01:47:35;;;;;;;;;;;15.60;59.20;;;;;;4139651;28;19917;-84
2023/07/09 01:49:36;;;;;;;;;;;15.60;59.50;;;;;;4143481;28;19996;-84
2023/07/09 01:51:37;;;;;;;;;;;15.50;59.30;;;;;;4144458;28;20563;-89
2023/07/09 01:53:38;;;;;;;;;;;15.60;59.50;;;;;;4126907;28;19914;-85
2023/07/09 01:55:39;;;;;;;;;;;15.60;59.50;;;;;;4126777;28;19913;-84
2023/07/09 01:57:40;;;;;;;;;;;15.50;59.50;;;;;;4144679;28;20364;-89
2023/07/09 01:59:42;;;;;;;;;;;15.50;59.60;;;;;;4126336;28;19925;-85
2023/07/09 02:01:42;;;;;;;;;;;15.50;59.50;;;;;;4128087;28;19926;-86
2023/07/09 02:03:43;;;;;;;;;;;15.50;59.50;;;;;;4142430;28;20276;-84
2023/07/09 02:05:43;;;;;;;;;;;15.50;59.50;;;;;;4124759;28;19933;-85
2023/07/09 02:07:44;;;;;;;;;;;15.40;59.60;;;;;;4139963;28;19921;-87
2023/07/09 02:09:45;;;;;;;;;;;15.40;59.60;;;;;;4137718;28;19927;-85
2023/07/09 02:11:45;;;;;;;;;;;15.40;59.60;;;;;;4141463;28;19956;-85
2023/07/09 02:13:46;;;;;;;;;;;15.40;59.70;;;;;;4139283;28;19918;-86
2023/07/09 02:15:49;;;;;;;;;;;15.40;59.80;;;;;;4140074;28;20380;-84
2023/07/09 02:17:52;;;;;;;;;;;15.40;59.70;;;;;;4124272;28;19966;-87
2023/07/09 02:19:52;;;;;;;;;;;15.30;59.90;;;;;;4129710;28;19921;-85
2023/07/09 02:21:53;;;;;;;;;;;15.30;59.90;;;;;;4141631;28;19913;-88
2023/07/09 02:23:53;;;;;;;;;;;15.30;60.00;;;;;;4137911;28;19928;-87
2023/07/09 02:25:54;;;;;;;;;;;15.30;59.90;;;;;;4122928;28;19918;-85
2023/07/09 02:27:54;;;;;;;;;;;15.30;59.90;;;;;;4142835;28;19939;-85
2023/07/09 02:29:55;;;;;;;;;;;15.20;59.60;;;;;;4143275;28;19963;-84
2023/07/09 02:31:57;;;;;;;;;;;15.20;60.00;;;;;;4140043;28;19917;-86
2023/07/09 02:33:58;;;;;;;;;;;15.20;60.10;;;;;;4139139;28;20364;-89
2023/07/09 02:35:58;;;;;;;;;;;15.20;59.90;;;;;;4139608;28;20004;-85
2023/07/09 02:37:59;;;;;;;;;;;15.20;60.00;;;;;;4129658;28;19928;-85
2023/07/09 02:39:59;;;;;;;;;;;15.20;61.00;;;;;;4125938;28;19917;-85
2023/07/09 02:42:00;;;;;;;;;;;15.20;60.20;;;;;;4143946;28;19921;-87
2023/07/09 02:44:01;;;;;;;;;;;15.20;60.30;;;;;;4143436;28;19929;-85
2023/07/09 02:46:01;;;;;;;;;;;15.20;60.20;;;;;;4142505;28;19968;-85
2023/07/09 02:48:02;;;;;;;;;;;15.30;60.30;;;;;;4138857;28;19991;-84
2023/07/09 02:50:03;;;;;;;;;;;15.10;60.20;;;;;;4140801;28;20015;-85
2023/07/09 02:52:03;;;;;;;;;;;15.10;60.20;;;;;;4139938;28;19920;-85
2023/07/09 02:54:04;;;;;;;;;;;15.10;60.30;;;;;;4123606;28;19960;-86
2023/07/09 02:56:05;;;;;;;;;;;15.10;60.50;;;;;;4139806;28;19925;-86
2023/07/09 02:58:05;;;;;;;;;;;15.10;60.40;;;;;;4142028;28;20406;-84
2023/07/09 03:00:07;;;;;;;;;;;15.10;60.40;;;;;;4128424;28;19966;-84
2023/07/09 03:02:09;;;;;;;;;;;15.10;60.60;;;;;;4142442;28;20569;-85
2023/07/09 03:04:09;;;;;;;;;;;15.10;60.70;;;;;;4145382;28;20411;-88
2023/07/09 03:06:10;;;;;;;;;;;15.10;60.90;;;;;;4145391;28;19921;-88
2023/07/09 03:08:10;;;;;;;;;;;15.20;60.90;;;;;;4147335;28;19976;-85
2023/07/09 03:10:11;;;;;;;;;;;15.10;60.80;;;;;;4144741;28;19968;-85
2023/07/09 03:12:11;;;;;;;;;;;15.10;61.30;;;;;;4142859;28;19931;-85
2023/07/09 03:14:12;;;;;;;;;;;15.10;61.60;;;;;;4128272;28;19918;-86
2023/07/09 03:16:13;;;;;;;;;;;15.10;61.70;;;;;;4139694;28;19921;-85
2023/07/09 03:18:14;;;;;;;;;;;15.10;62.00;;;;;;4123296;28;20351;-87
2023/07/09 03:20:14;;;;;;;;;;;15.10;62.10;;;;;;4143333;28;19914;-86
2023/07/09 03:22:16;;;;;;;;;;;15.10;61.60;;;;;;4142679;28;20299;-84
2023/07/09 03:24:18;;;;;;;;;;;15.10;61.70;;;;;;4124935;28;21248;-88
2023/07/09 03:26:18;;;;;;;;;;;15.00;61.70;;;;;;4128273;28;20048;-87
2023/07/09 03:28:21;;;;;;;;;;;15.10;61.80;;;;;;4126327;28;19917;-86
2023/07/09 03:30:45;;;;;;;;;;;15.10;61.80;;;;;;4145112;28;19914;-86
2023/07/09 03:33:06;;;;;;;;;;;15.10;61.70;;;;;;4135247;28;20009;-85
2023/07/09 03:35:27;;;;;;;;;;;15.10;62.00;;;;;;4133686;28;19925;-85
2023/07/09 03:37:47;;;;;;;;;;;15.10;62.20;;;;;;4144205;28;19937;-89
2023/07/09 03:40:09;;;;;;;;;;;15.10;62.40;;;;;;4145784;28;19937;-86
2023/07/09 03:42:30;;;;;;;;;;;15.10;62.50;;;;;;4130090;28;19922;-85
2023/07/09 03:44:51;;;;;;;;;;;15.20;62.10;;;;;;4129407;28;20125;-86
2023/07/09 03:47:11;;;;;;;;;;;15.20;62.00;;;;;;4146588;28;19999;-85
2023/07/09 03:49:32;;;;;;;;;;;15.20;62.10;;;;;;4130924;28;19961;-88
2023/07/09 03:51:52;;;;;;;;;;;15.20;62.50;;;;;;4146386;28;19996;-85
2023/07/09 03:53:53;;;;;;;;;;;15.30;62.90;;;;;;4129229;28;20401;-85
2023/07/09 03:55:56;;;;;;;;;;;15.30;65.60;;;;;;4144893;28;20009;-87
2023/07/09 03:57:57;;;;;;;;;;;15.40;65.80;;;;;;4144020;28;19924;-86
2023/07/09 03:59:58;;;;;;;;;;;15.40;66.10;;;;;;4143715;28;19920;-84
2023/07/09 04:02:18;;;;;;;;;;;15.50;65.70;;;;;;4130132;28;20130;-85
2023/07/09 04:04:20;;;;;;;;;;;15.60;66.10;;;;;;4125512;28;20342;-87
2023/07/09 04:06:23;;;;;;;;;;;15.60;66.40;;;;;;4143999;28;20758;-84
2023/07/09 04:08:25;;;;;;;;;;;15.70;66.70;;;;;;4144222;28;20253;-85
2023/07/09 04:10:26;;;;;;;;;;;15.70;67.60;;;;;;4124292;28;19921;-85
2023/07/09 04:12:26;;;;;;;;;;;15.80;67.50;;;;;;4143537;28;19944;-85
2023/07/09 04:14:27;;;;;;;;;;;15.80;68.00;;;;;;4123815;28;20014;-86
2023/07/09 04:16:27;;;;;;;;;;;16.00;68.20;;;;;;4133522;28;19921;-85
2023/07/09 04:18:28;;;;;;;;;;;16.00;70.00;;;;;;4138979;28;19914;-85
2023/07/09 04:20:29;;;;;;;;;;;16.20;70.50;;;;;;4143691;28;19921;-85
2023/07/09 04:22:29;;;;;;;;;;;16.20;71.70;;;;;;4122154;28;19926;-85
2023/07/09 04:24:33;;;;;;;;;;;16.30;70.30;;;;;;4138697;28;19929;-86
2023/07/09 04:26:33;;;;;;;;;;;16.40;73.50;;;;;;4125299;28;19922;-85
2023/07/09 04:28:34;;;;;;;;;;;16.50;74.10;;;;;;4137277;28;20019;-87
2023/07/09 04:30:35;;;;;;;;;;;16.60;72.60;;;;;;4145324;28;20295;-85
2023/07/09 04:32:58;;;;;;;;;;;16.80;71.20;;;;;;4162856;28;19909;-89
2023/07/09 04:34:59;;;;;;;;;;;16.90;70.20;;;;;;4162436;28;19928;-87
2023/07/09 04:37:20;;;;;;;;;;;17.00;69.30;;;;;;4155025;28;19901;-90
2023/07/09 04:39:40;;;;;;;;;;;17.10;68.10;;;;;;4150470;28;20046;-87
2023/07/09 04:41:41;;;;;;;;;;;17.20;68.60;;;;;;4164241;28;19924;-89
2023/07/09 04:43:41;;;;;;;;;;;17.20;73.70;;;;;;4161788;28;19924;-89
2023/07/09 04:45:45;;;;;;;;;;;17.30;73.90;;;;;;4146372;28;19921;-86
2023/07/09 04:47:45;;;;;;;;;;;17.40;75.20;;;;;;4142301;28;19917;-86
2023/07/09 04:49:46;;;;;;;;;;;17.50;74.90;;;;;;4123767;28;19914;-85
2023/07/09 04:51:47;;;;;;;;;;;17.60;73.60;;;;;;4126146;28;20181;-85
2023/07/09 04:53:49;;;;;;;;;;;17.60;73.80;;;;;;4119958;28;19921;-88
2023/07/09 04:55:49;;;;;;;;;;;17.80;72.10;;;;;;4137391;28;19913;-88
2023/07/09 04:57:50;;;;;;;;;;;17.80;73.00;;;;;;4120606;28;19969;-86
2023/07/09 04:59:50;;;;;;;;;;;17.80;74.30;;;;;;4143418;28;19988;-85
2023/07/09 05:01:51;;;;;;;;;;;17.90;76.20;;;;;;4143223;28;19921;-88
2023/07/09 05:03:51;;;;;;;;;;;18.00;75.70;;;;;;4140898;28;19943;-85
2023/07/09 05:05:52;;;;;;;;;;;18.10;75.20;;;;;;4140547;28;21621;-89
2023/07/09 05:07:53;;;;;;;;;;;18.10;76.80;;;;;;4124524;28;19953;-86
2023/07/09 05:09:53;;;;;;;;;;;18.20;75.90;;;;;;4140590;28;19917;-86
2023/07/09 05:11:54;;;;;;;;;;;18.20;75.30;;;;;;4121136;28;19918;-84
2023/07/09 05:13:54;;;;;;;;;;;18.30;74.20;;;;;;4141521;28;19950;-87
2023/07/09 05:15:55;;;;;;;;;;;18.40;73.50;;;;;;4126936;28;19932;-85
2023/07/09 05:17:56;;;;;;;;;;;18.50;73.00;;;;;;4139287;28;19968;-85
2023/07/09 05:19:56;;;;;;;;;;;18.50;73.60;;;;;;4127306;28;19922;-86
2023/07/09 05:21:57;;;;;;;;;;;18.60;72.80;;;;;;4136722;28;19922;-87
2023/07/09 05:23:58;;;;;;;;;;;18.60;71.70;;;;;;4142370;28;19964;-87
2023/07/09 05:25:59;;;;;;;;;;;18.70;73.20;;;;;;4141826;28;19913;-85
2023/07/09 05:28:00;;;;;;;;;;;18.80;72.10;;;;;;4142218;28;20410;-86
2023/07/09 05:30:11;;;;;;;;;;;18.80;71.40;;;;;;4124846;28;19921;-86
2023/07/09 05:32:36;;;;;;;;;;;18.80;70.30;;;;;;4125808;28;19922;-87
2023/07/09 05:34:39;;;;;;;;;;;18.90;69.80;;;;;;4140329;28;20517;-88
2023/07/09 05:36:42;;;;;;;;;;;18.90;71.10;;;;;;4136976;28;19922;-88
2023/07/09 05:38:45;;;;;;;;;;;19.00;72.10;;;;;;4135593;28;20015;-86
2023/07/09 05:41:03;;;;;;;;;;;18.90;71.70;;;;;;4135193;28;20817;-85
2023/07/09 05:43:14;;;;;;;;;;;19.00;72.10;;;;;;4141393;28;19925;-84
2023/07/09 05:45:18;;;;;;;;;;;19.00;71.60;;;;;;4122622;28;19921;-85
2023/07/09 05:47:19;;;;;;;;;;;19.20;70.60;;;;;;4141091;28;19924;-86
2023/07/09 05:49:19;;;;;;;;;;;19.30;71.70;;;;;;4127525;28;19933;-85
2023/07/09 05:51:21;;;;;;;;;;;19.30;71.60;;;;;;4138823;28;19921;-84
2023/07/09 05:53:22;;;;;;;;;;;19.30;71.30;;;;;;4137824;28;19981;-88
2023/07/09 05:55:22;;;;;;;;;;;19.40;70.10;;;;;;4137630;28;19922;-84
2023/07/09 05:57:23;;;;;;;;;;;19.40;70.80;;;;;;4142714;28;19990;-86
2023/07/09 05:59:23;;;;;;;;;;;19.50;69.70;;;;;;4125746;28;19960;-85
2023/07/09 06:01:25;;;;;;;;;;;19.50;70.00;;;;;;4121688;28;19922;-83
2023/07/09 06:03:26;;;;;;;;;;;19.60;69.60;;;;;;4136474;28;20398;-90
2023/07/09 06:05:29;;;;;;;;;;;19.70;70.20;;;;;;4127846;28;19914;-85
2023/07/09 06:07:30;;;;;;;;;;;19.70;69.30;;;;;;4144558;28;19913;-84
2023/07/09 06:09:31;;;;;;;;;;;19.70;68.60;;;;;;4143139;28;20414;-84
2023/07/09 06:11:32;;;;;;;;;;;19.80;68.50;;;;;;4142007;28;19952;-85
2023/07/09 06:13:32;;;;;;;;;;;19.80;68.60;;;;;;4145338;28;19918;-85
2023/07/09 06:15:33;;;;;;;;;;;19.90;68.40;;;;;;4127534;28;19914;-85
2023/07/09 06:17:33;;;;;;;;;;;19.90;68.80;;;;;;4144646;28;20020;-85
2023/07/09 06:19:34;;;;;;;;;;;20.10;68.40;;;;;;4128471;28;19944;-86
2023/07/09 06:21:34;;;;;;;;;;;20.10;68.20;;;;;;4140897;28;19913;-86
2023/07/09 06:23:35;;;;;;;;;;;20.20;67.90;;;;;;4126387;28;19917;-85
2023/07/09 06:25:37;;;;;;;;;;;20.30;67.40;;;;;;4147140;28;20033;-84
2023/07/09 06:27:38;;;;;;;;;;;20.40;67.20;;;;;;4146690;28;19979;-83
2023/07/09 06:29:39;;;;;;;;;;;20.40;66.80;;;;;;4146600;28;19913;-87
2023/07/09 06:31:40;;;;;;;;;;;20.50;66.30;;;;;;4147073;28;19913;-83
2023/07/09 06:33:41;;;;;;;;;;;20.60;66.20;;;;;;4143536;28;19949;-86
2023/07/09 06:35:48;;;;;;;;;;;20.60;65.70;;;;;;4127585;28;19988;-86
2023/07/09 06:37:49;;;;;;;;;;;20.70;65.50;;;;;;4141368;28;19976;-86
2023/07/09 06:39:50;;;;;;;;;;;20.70;65.30;;;;;;4144793;28;19914;-85
2023/07/09 06:41:51;;;;;;;;;;;20.70;64.20;;;;;;4143790;28;20025;-85
2023/07/09 06:43:53;;;;;;;;;;;20.90;64.60;;;;;;4143038;28;20410;-84
2023/07/09 06:45:55;;;;;;;;;;;20.90;64.00;;;;;;4145277;28;20399;-87
2023/07/09 06:47:56;;;;;;;;;;;20.90;63.40;;;;;;4143795;28;19921;-85
2023/07/09 06:49:56;;;;;;;;;;;21.00;63.20;;;;;;4142468;28;19920;-85
2023/07/09 06:52:00;;;;;;;;;;;21.10;63.20;;;;;;4142702;28;20004;-85
2023/07/09 06:54:00;;;;;;;;;;;21.10;62.80;;;;;;4124573;28;19917;-83
2023/07/09 06:56:01;;;;;;;;;;;21.20;62.20;;;;;;4128581;28;19918;-84
2023/07/09 06:58:01;;;;;;;;;;;21.20;62.00;;;;;;4143186;28;20023;-83
2023/07/09 07:00:02;;;;;;;;;;;21.20;60.80;;;;;;4144792;28;19913;-86
2023/07/09 07:02:03;;;;;;;;;;;21.30;60.10;;;;;;4144938;28;19966;-84
2023/07/09 07:04:03;;;;;;;;;;;21.30;60.80;;;;;;4142187;28;19917;-86
2023/07/09 07:06:06;;;;;;;;;;;21.40;60.70;;;;;;4142912;28;19928;-85
2023/07/09 07:08:07;;;;;;;;;;;21.40;60.60;;;;;;4128483;28;19914;-83
2023/07/09 07:10:08;;;;;;;;;;;21.40;59.60;;;;;;4143377;28;20427;-84
2023/07/09 07:12:09;;;;;;;;;;;21.40;58.50;;;;;;4143963;28;19917;-83
2023/07/09 07:14:09;;;;;;;;;;;21.50;59.30;;;;;;4141628;28;20481;-84
2023/07/09 07:16:10;;;;;;;;;;;21.60;59.30;;;;;;4147315;28;20368;-85
2023/07/09 07:18:11;;;;;;;;;;;21.70;59.20;;;;;;4143934;28;20044;-84
2023/07/09 07:20:12;;;;;;;;;;;21.70;58.80;;;;;;4146463;28;19921;-85
2023/07/09 07:22:13;;;;;;;;;;;21.80;58.80;;;;;;4144511;28;19918;-84
2023/07/09 07:24:13;;;;;;;;;;;21.90;58.70;;;;;;4144009;28;20303;-84
2023/07/09 07:26:14;;;;;;;;;;;21.90;58.00;;;;;;4129323;28;20451;-84
2023/07/09 07:28:14;;;;;;;;;;;22.00;58.60;;;;;;4143520;28;19914;-84
2023/07/09 07:30:15;;;;;;;;;;;22.00;57.60;;;;;;4130553;28;19918;-84
2023/07/09 07:32:16;;;;;;;;;;;22.10;56.60;;;;;;4145095;28;20380;-86
2023/07/09 07:34:16;;;;;;;;;;;22.10;56.20;;;;;;4125534;28;20454;-85
2023/07/09 07:36:17;;;;;;;;;;;22.20;56.30;;;;;;4144738;28;20035;-84
2023/07/09 07:38:17;;;;;;;;;;;22.30;57.00;;;;;;4143755;28;20391;-84
2023/07/09 07:40:18;;;;;;;;;;;22.30;56.80;;;;;;4143632;28;20195;-84
2023/07/09 07:42:19;;;;;;;;;;;22.40;56.30;;;;;;4142302;28;20329;-84
2023/07/09 07:44:19;;;;;;;;;;;22.40;55.90;;;;;;4141939;28;19913;-85
2023/07/09 07:46:20;;;;;;;;;;;22.50;56.00;;;;;;4145948;28;19985;-84
2023/07/09 07:48:20;;;;;;;;;;;22.60;55.30;;;;;;4130767;28;20167;-84
2023/07/09 07:50:21;;;;;;;;;;;22.60;53.50;;;;;;4130910;28;20581;-85
2023/07/09 07:52:22;;;;;;;;;;;22.60;53.70;;;;;;4141071;28;19945;-87
2023/07/09 07:54:22;;;;;;;;;;;22.70;53.70;;;;;;4144284;28;20514;-84
2023/07/09 07:56:23;;;;;;;;;;;22.70;52.70;;;;;;4147521;28;19972;-84
2023/07/09 07:58:23;;;;;;;;;;;22.70;52.10;;;;;;4145920;28;20363;-85
2023/07/09 08:00:24;;;;;;;;;;;22.80;51.60;;;;;;4144500;28;19970;-85
2023/07/09 08:02:25;;;;;;;;;;;22.80;51.30;;;;;;4140510;28;20384;-84
2023/07/09 08:04:26;;;;;;;;;;;22.80;51.20;;;;;;4145781;28;20426;-86
2023/07/09 08:06:26;;;;;;;;;;;22.90;51.40;;;;;;4145221;28;20336;-85
2023/07/09 08:08:27;;;;;;;;;;;22.90;51.40;;;;;;4145711;28;20371;-84
2023/07/09 08:10:27;;;;;;;;;;;23.00;51.80;;;;;;4146611;28;20152;-84
2023/07/09 08:12:28;;;;;;;;;;;23.00;51.30;;;;;;4125251;28;19925;-83
2023/07/09 08:14:28;;;;;;;;;;;23.10;50.70;;;;;;4132432;28;19968;-83
2023/07/09 08:16:29;;;;;;;;;;;23.20;50.90;;;;;;4135402;28;20644;-84
2023/07/09 08:18:30;;;;;;;;;;;23.20;50.30;;;;;;4145931;28;19965;-84
2023/07/09 08:20:32;;;;;;;;;;;23.30;50.80;;;;;;4145146;28;20708;-84
2023/07/09 08:22:33;;;;;;;;;;;23.40;49.80;;;;;;4143458;28;19933;-86
2023/07/09 08:24:33;;;;;;;;;;;23.40;50.40;;;;;;4143683;28;20032;-82
2023/07/09 08:26:34;;;;;;;;;;;23.50;51.10;;;;;;4146158;28;20546;-81
2023/07/09 08:28:35;;;;;;;;;;;23.50;50.80;;;;;;4145848;28;20367;-83
2023/07/09 08:30:36;;;;;;;;;;;23.50;50.90;;;;;;4145660;28;19963;-83
2023/07/09 08:32:36;;;;;;;;;;;23.40;51.10;;;;;;4142005;28;19956;-86
2023/07/09 08:34:38;;;;;;;;;;;23.40;51.70;;;;;;4144442;28;19913;-83
2023/07/09 08:36:38;;;;;;;;;;;23.40;52.00;;;;;;4143992;28;19932;-83
2023/07/09 08:38:39;;;;;;;;;;;23.40;51.90;;;;;;4145844;28;20202;-83
2023/07/09 08:40:49;;;;;;;;;;;23.40;51.70;;;;;;4128530;28;20316;-85
2023/07/09 08:42:52;;;;;;;;;;;23.40;50.80;;;;;;4143257;28;19918;-86
2023/07/09 08:45:02;;;;;;;;;;;23.40;50.60;;;;;;4144389;28;19920;-84
2023/07/09 08:47:03;;;;;;;;;;;23.50;51.10;;;;;;4128311;28;19914;-84
2023/07/09 08:49:12;;;;;;;;;;;23.50;51.70;;;;;;4143405;28;20101;-84
2023/07/09 08:51:33;;;;;;;;;;;23.50;50.00;;;;;;4139573;28;19948;-84
2023/07/09 08:53:37;;;;;;;;;;;23.60;51.00;;;;;;4142918;28;19914;-84
2023/07/09 08:55:40;;;;;;;;;;;23.60;50.60;;;;;;4145109;28;19933;-85
2023/07/09 08:57:42;;;;;;;;;;;23.70;50.60;;;;;;4144082;28;19924;-85
2023/07/09 08:59:44;;;;;;;;;;;23.70;50.00;;;;;;4143647;28;19926;-84
2023/07/09 09:01:57;;;;;;;;;;;23.80;50.80;;;;;;4143410;28;19921;-84
2023/07/09 09:04:00;;;;;;;;;;;23.90;48.70;;;;;;4144012;28;19997;-84
2023/07/09 09:06:01;;;;;;;;;;;24.00;50.00;;;;;;4140859;28;19917;-86
2023/07/09 09:08:21;;;;;;;;;;;24.00;48.60;;;;;;4143663;28;19961;-84
2023/07/09 09:10:43;;;;;;;;;;;23.90;47.50;;;;;;4138752;28;19921;-84
2023/07/09 09:13:01;;;;;;;;;;;23.90;47.90;;;;;;4143685;28;19960;-83
2023/07/09 09:15:04;;;;;;;;;;;24.00;48.60;;;;;;4146720;28;19917;-86
2023/07/09 09:17:10;;;;;;;;;;;24.10;49.10;;;;;;4142017;28;19917;-83
2023/07/09 09:19:22;;;;;;;;;;;24.00;48.70;;;;;;4145577;28;19957;-83
2023/07/09 09:21:26;;;;;;;;;;;24.10;48.50;;;;;;4145006;28;20004;-83
2023/07/09 09:23:41;;;;;;;;;;;24.10;48.30;;;;;;4145450;28;19917;-85
2023/07/09 09:25:45;;;;;;;;;;;24.10;48.90;;;;;;4143552;28;19953;-84
2023/07/09 09:27:46;;;;;;;;;;;24.10;50.50;;;;;;4145746;28;19955;-85
2023/07/09 09:29:46;;;;;;;;;;;24.10;48.90;;;;;;4133030;28;19910;-84
2023/07/09 09:31:50;;;;;;;;;;;24.10;47.90;;;;;;4143582;28;22063;-85
2023/07/09 09:33:51;;;;;;;;;;;24.20;50.90;;;;;;4146224;28;19916;-84
2023/07/09 09:36:01;;;;;;;;;;;24.20;51.50;;;;;;4143226;28;20008;-84
2023/07/09 09:38:08;;;;;;;;;;;24.20;51.00;;;;;;4144725;28;19929;-84
2023/07/09 09:40:09;;;;;;;;;;;24.30;51.70;;;;;;4142648;28;19925;-84
2023/07/09 09:42:11;;;;;;;;;;;24.20;50.60;;;;;;4145207;28;20287;-84
2023/07/09 09:44:18;;;;;;;;;;;24.20;48.20;;;;;;4142248;28;20392;-84
2023/07/09 09:46:21;;;;;;;;;;;24.20;48.70;;;;;;4143950;28;20170;-83
2023/07/09 09:48:29;;;;;;;;;;;24.20;47.40;;;;;;4143374;28;19963;-86
2023/07/09 09:50:31;;;;;;;;;;;24.30;47.80;;;;;;4149717;28;19913;-84
2023/07/09 09:52:34;;;;;;;;;;;24.20;47.40;;;;;;4143366;28;19920;-83
2023/07/09 09:54:35;;;;;;;;;;;24.30;47.80;;;;;;4145942;28;19945;-84
2023/07/09 09:56:36;;;;;;;;;;;24.20;48.10;;;;;;4143549;28;19917;-84
2023/07/09 09:58:40;;;;;;;;;;;24.30;48.40;;;;;;4127186;28;19918;-84
2023/07/09 10:00:40;;;;;;;;;;;24.30;48.10;;;;;;4148132;28;19925;-84
2023/07/09 10:02:41;;;;;;;;;;;24.40;48.30;;;;;;4150208;28;19931;-85
2023/07/09 10:04:43;;;;;;;;;;;24.50;47.90;;;;;;4143417;28;19921;-84
2023/07/09 10:06:50;;;;;;;;;;;24.50;47.50;;;;;;4141038;28;19913;-84
2023/07/09 10:08:57;;;;;;;;;;;24.60;47.10;;;;;;4127187;28;20005;-86
2023/07/09 10:11:05;;;;;;;;;;;24.70;46.90;;;;;;4145053;28;19909;-84
2023/07/09 10:13:15;;;;;;;;;;;24.80;45.40;;;;;;4140037;28;19914;-81
2023/07/09 10:15:15;;;;;;;;;;;24.70;44.50;;;;;;4143097;28;19909;-84
2023/07/09 10:17:22;;;;;;;;;;;24.80;47.10;;;;;;4148185;28;19991;-84
2023/07/09 10:19:25;;;;;;;;;;;24.80;46.80;;;;;;4153847;28;19945;-86
2023/07/09 10:21:25;;;;;;;;;;;24.80;46.10;;;;;;4161092;28;20007;-85
2023/07/09 10:23:28;;;;;;;;;;;24.90;45.20;;;;;;4158251;28;19921;-85
2023/07/09 10:25:34;;;;;;;;;;;24.90;44.90;;;;;;4160122;28;19910;-84
2023/07/09 10:27:49;;;;;;;;;;;24.90;44.90;;;;;;4156929;28;19897;-86
2023/07/09 10:29:53;;;;;;;;;;;24.90;45.20;;;;;;4150660;28;19914;-86
2023/07/09 10:32:23;;;;;;;;;;;25.00;44.10;;;;;;4152889;28;19996;-84
2023/07/09 10:34:23;;;;;;;;;;;25.00;44.20;;;;;;4112559;28;19914;-84
2023/07/09 10:36:24;;;;;;;;;;;25.00;43.70;;;;;;4135207;28;19985;-84
2023/07/09 10:38:27;;;;;;;;;;;25.00;42.80;;;;;;4149154;28;19964;-84
2023/07/09 10:40:43;;;;;;;;;;;25.00;43.40;;;;;;4148635;28;19918;-84
2023/07/09 10:42:50;;;;;;;;;;;24.90;43.80;;;;;;4134829;28;19917;-85
2023/07/09 10:44:54;;;;;;;;;;;24.90;44.80;;;;;;4143434;28;19914;-86
2023/07/09 10:46:58;;;;;;;;;;;24.90;45.20;;;;;;4126856;28;19922;-85
2023/07/09 10:48:59;;;;;;;;;;;25.00;44.20;;;;;;4146770;28;19920;-84
2023/07/09 10:51:02;;;;;;;;;;;25.00;43.10;;;;;;4144272;28;19921;-86
2023/07/09 10:53:26;;;;;;;;;;;25.00;42.50;;;;;;4130011;28;19960;-83
2023/07/09 10:55:32;;;;;;;;;;;25.10;42.10;;;;;;4147633;28;19909;-84
2023/07/09 10:57:33;;;;;;;;;;;25.10;42.30;;;;;;4143418;28;19925;-83
2023/07/09 10:59:35;;;;;;;;;;;25.10;42.30;;;;;;4146725;28;19925;-85
2023/07/09 11:01:39;;;;;;;;;;;25.00;41.60;;;;;;4146452;28;19972;-84
2023/07/09 11:03:43;;;;;;;;;;;25.00;40.60;;;;;;4148206;28;19913;-83
2023/07/09 11:05:44;;;;;;;;;;;24.90;41.00;;;;;;4144500;28;19921;-83
2023/07/09 11:08:04;;;;;;;;;;;25.00;41.70;;;;;;4132031;28;19961;-84
2023/07/09 11:10:17;;;;;;;;;;;25.00;41.80;;;;;;4142551;28;19913;-84
2023/07/09 11:12:22;;;;;;;;;;;25.10;42.50;;;;;;4124160;28;19909;-84
2023/07/09 11:14:26;;;;;;;;;;;25.10;42.30;;;;;;4127847;28;19913;-85
2023/07/09 11:16:29;;;;;;;;;;;25.10;40.60;;;;;;4145346;28;19921;-83
2023/07/09 11:18:31;;;;;;;;;;;25.10;41.10;;;;;;4145609;28;19921;-84
2023/07/09 11:20:35;;;;;;;;;;;25.20;40.60;;;;;;4146660;28;19921;-84
2023/07/09 11:22:40;;;;;;;;;;;25.10;39.50;;;;;;4149131;28;19914;-85
2023/07/09 11:24:46;;;;;;;;;;;25.10;40.50;;;;;;4145760;28;19913;-84
2023/07/09 11:26:48;;;;;;;;;;;25.10;40.80;;;;;;4147436;28;19941;-86
2023/07/09 11:28:53;;;;;;;;;;;25.20;41.40;;;;;;4142327;28;20034;-85
2023/07/09 11:30:54;;;;;;;;;;;25.10;38.60;;;;;;4151221;28;19975;-84
2023/07/09 11:33:00;;;;;;;;;;;25.10;38.70;;;;;;4149066;28;19917;-83
2023/07/09 11:35:08;;;;;;;;;;;25.10;39.50;;;;;;4147668;28;19945;-84
2023/07/09 11:37:11;;;;;;;;;;;25.10;39.20;;;;;;4147848;28;19971;-84
2023/07/09 11:39:27;;;;;;;;;;;25.10;38.90;;;;;;4131665;28;19918;-86
2023/07/09 11:41:34;;;;;;;;;;;25.10;38.50;;;;;;4146599;28;19925;-85
2023/07/09 11:43:46;;;;;;;;;;;25.00;38.70;;;;;;4148993;28;19928;-83
2023/07/09 11:45:46;;;;;;;;;;;25.10;38.60;;;;;;4151350;28;19990;-85
2023/07/09 11:47:59;;;;;;;;;;;25.10;38.80;;;;;;4148262;28;19925;-85
2023/07/09 11:50:00;;;;;;;;;;;25.00;38.50;;;;;;4147632;28;19913;-84
2023/07/09 11:52:03;;;;;;;;;;;25.00;38.60;;;;;;4149737;28;19951;-83
2023/07/09 11:54:03;;;;;;;;;;;25.00;37.50;;;;;;4147688;28;19920;-83
2023/07/09 11:56:07;;;;;;;;;;;24.90;36.50;;;;;;4135568;28;21228;-82
2023/07/09 11:58:10;;;;;;;;;;;24.90;37.50;;;;;;4131315;28;19922;-84
2023/07/09 12:00:11;;;;;;;;;;;24.90;37.70;;;;;;4143928;28;19924;-82
2023/07/09 12:02:16;;;;;;;;;;;24.90;38.30;;;;;;4143967;28;19925;-83
2023/07/09 12:04:18;;;;;;;;;;;24.90;37.80;;;;;;4135981;28;19913;-83